sensor_id;sensor_type;location;lat;lon;timestamp;pressure;altitude;pressure_sealevel;temperature;humidity
6144;BME280;3103;49.492;8.474;2023-09-30T00:01:58;101356.94;;;19.42;70.94
6144;BME280;3103;49.492;8.474;2023-09-30T00:04:25;101365.94;;;19.43;70.57
6144;BME280;3103;49.492;8.474;2023-09-30T00:06:54;101358.31;;;19.35;70.52
6144;BME280;3103;49.492;8.474;2023-09-30T00:09:21;101362.16;;;19.28;70.08
6144;BME280;3103;49.492;8.474;2023-09-30T00:11:48;101363.53;;;19.06;71.18
6144;BME280;3103;49.492;8.474;2023-09-30T00:14:15;101368.97;;;19.11;71.21
6144;BME280;3103;49.492;8.474;2023-09-30T00:16:43;101369.00;;;19.16;70.89
6144;BME280;3103;49.492;8.474;2023-09-30T00:19:11;101372.53;;;19.16;70.74
6144;BME280;3103;49.492;8.474;2023-09-30T00:21:39;101376.59;;;19.24;70.58
6144;BME280;3103;49.492;8.474;2023-09-30T00:24:06;101390.22;;;18.93;71.40
6144;BME280;3103;49.492;8.474;2023-09-30T00:26:33;101390.78;;;19.01;71.54
6144;BME280;3103;49.492;8.474;2023-09-30T00:29:00;101385.59;;;19.04;71.69
6144;BME280;3103;49.492;8.474;2023-09-30T00:31:31;101386.94;;;18.96;71.86
6144;BME280;3103;49.492;8.474;2023-09-30T00:33:58;101393.75;;;19.09;71.97
6144;BME280;3103;49.492;8.474;2023-09-30T00:36:26;101390.78;;;19.01;71.72
6144;BME280;3103;49.492;8.474;2023-09-30T00:38:53;101393.22;;;19.02;72.37
6144;BME280;3103;49.492;8.474;2023-09-30T00:41:20;101405.75;;;19.28;71.21
6144;BME280;3103;49.492;8.474;2023-09-30T00:43:47;101409.56;;;19.22;71.03
6144;BME280;3103;49.492;8.474;2023-09-30T00:46:31;101406.03;;;19.07;71.20
6144;BME280;3103;49.492;8.474;2023-09-30T00:48:59;101401.13;;;19.04;71.08
6144;BME280;3103;49.492;8.474;2023-09-30T00:51:27;101400.84;;;19.20;70.63
6144;BME280;3103;49.492;8.474;2023-09-30T00:53:58;101400.00;;;19.25;70.22
6144;BME280;3103;49.492;8.474;2023-09-30T00:56:28;101405.47;;;18.94;71.42
6144;BME280;3103;49.492;8.474;2023-09-30T00:58:57;101413.38;;;19.06;71.50
6144;BME280;3103;49.492;8.474;2023-09-30T01:01:25;101407.38;;;19.04;71.48
6144;BME280;3103;49.492;8.474;2023-09-30T01:03:53;101398.66;;;19.12;71.43
6144;BME280;3103;49.492;8.474;2023-09-30T01:06:20;101394.03;;;19.08;71.38
6144;BME280;3103;49.492;8.474;2023-09-30T01:08:47;101385.84;;;19.23;71.04
6144;BME280;3103;49.492;8.474;2023-09-30T01:11:14;101386.13;;;19.21;70.95
6144;BME280;3103;49.492;8.474;2023-09-30T01:13:43;101394.84;;;19.34;70.85
6144;BME280;3103;49.492;8.474;2023-09-30T01:16:11;101395.66;;;19.24;71.09
6144;BME280;3103;49.492;8.474;2023-09-30T01:18:39;101400.31;;;19.03;71.77
6144;BME280;3103;49.492;8.474;2023-09-30T01:21:09;101404.94;;;18.92;73.03
6144;BME280;3103;49.492;8.474;2023-09-30T01:23:37;101401.13;;;19.04;72.82
6144;BME280;3103;49.492;8.474;2023-09-30T01:26:07;101394.56;;;19.10;72.94
6144;BME280;3103;49.492;8.474;2023-09-30T01:28:36;101390.75;;;19.11;73.64
6144;BME280;3103;49.492;8.474;2023-09-30T01:31:02;101394.31;;;19.16;73.42
6144;BME280;3103;49.492;8.474;2023-09-30T01:33:30;101405.47;;;19.25;72.81
6144;BME280;3103;49.492;8.474;2023-09-30T01:36:01;101415.00;;;19.12;72.99
6144;BME280;3103;49.492;8.474;2023-09-30T01:38:28;101410.94;;;19.20;72.66
6144;BME280;3103;49.492;8.474;2023-09-30T01:40:55;101408.19;;;19.25;72.30
6144;BME280;3103;49.492;8.474;2023-09-30T01:43:26;101409.81;;;19.11;72.89
6144;BME280;3103;49.492;8.474;2023-09-30T01:45:53;101413.38;;;19.01;72.59
6144;BME280;3103;49.492;8.474;2023-09-30T01:48:20;101411.47;;;18.96;73.08
6144;BME280;3103;49.492;8.474;2023-09-30T01:50:47;101413.09;;;18.82;72.93
6144;BME280;3103;49.492;8.474;2023-09-30T01:53:14;101420.69;;;18.70;73.80
6144;BME280;3103;49.492;8.474;2023-09-30T01:55:41;101425.34;;;18.75;73.09
6144;BME280;3103;49.492;8.474;2023-09-30T01:58:08;101430.69;;;18.54;74.59
6144;BME280;3103;49.492;8.474;2023-09-30T02:00:37;101418.94;;;18.33;75.95
6144;BME280;3103;49.492;8.474;2023-09-30T02:03:04;101414.63;;;18.58;75.45
6144;BME280;3103;49.492;8.474;2023-09-30T02:05:32;101422.34;;;18.81;74.51
6144;BME280;3103;49.492;8.474;2023-09-30T02:07:59;101424.00;;;18.87;74.13
6144;BME280;3103;49.492;8.474;2023-09-30T02:10:26;101425.88;;;18.77;74.62
6144;BME280;3103;49.492;8.474;2023-09-30T02:12:53;101420.63;;;18.45;75.71
6144;BME280;3103;49.492;8.474;2023-09-30T02:15:20;101420.91;;;18.53;75.27
6144;BME280;3103;49.492;8.474;2023-09-30T02:17:48;101419.59;;;18.71;74.80
6144;BME280;3103;49.492;8.474;2023-09-30T02:20:16;101428.06;;;18.80;74.28
6144;BME280;3103;49.492;8.474;2023-09-30T02:22:46;101413.09;;;18.87;73.50
6144;BME280;3103;49.492;8.474;2023-09-30T02:25:14;101416.63;;;18.98;72.41
6144;BME280;3103;49.492;8.474;2023-09-30T02:27:42;101419.09;;;18.94;72.66
6144;BME280;3103;49.492;8.474;2023-09-30T02:30:10;101417.63;;;18.46;73.83
6144;BME280;3103;49.492;8.474;2023-09-30T02:32:39;101431.31;;;18.77;72.76
6144;BME280;3103;49.492;8.474;2023-09-30T02:35:08;101431.06;;;18.93;71.91
6144;BME280;3103;49.492;8.474;2023-09-30T02:37:37;101428.63;;;18.92;71.97
6144;BME280;3103;49.492;8.474;2023-09-30T02:40:05;101420.19;;;18.88;72.49
6144;BME280;3103;49.492;8.474;2023-09-30T02:42:38;101434.59;;;18.84;72.38
6144;BME280;3103;49.492;8.474;2023-09-30T02:45:06;101432.38;;;18.71;73.43
6144;BME280;3103;49.492;8.474;2023-09-30T02:47:35;101436.78;;;18.82;72.52
6144;BME280;3103;49.492;8.474;2023-09-30T02:50:02;101438.94;;;18.80;72.35
6144;BME280;3103;49.492;8.474;2023-09-30T02:52:31;101432.16;;;18.77;72.61
6144;BME280;3103;49.492;8.474;2023-09-30T02:54:58;101431.50;;;18.55;73.21
6144;BME280;3103;49.492;8.474;2023-09-30T02:57:26;101431.78;;;18.53;73.48
6144;BME280;3103;49.492;8.474;2023-09-30T02:59:54;101440.47;;;18.45;74.09
6144;BME280;3103;49.492;8.474;2023-09-30T03:02:23;101446.47;;;18.47;74.24
6144;BME280;3103;49.492;8.474;2023-09-30T03:04:51;101445.16;;;18.60;73.58
6144;BME280;3103;49.492;8.474;2023-09-30T03:07:20;101447.25;;;18.37;73.47
6144;BME280;3103;49.492;8.474;2023-09-30T03:09:47;101442.94;;;18.47;73.43
6144;BME280;3103;49.492;8.474;2023-09-30T03:12:14;101436.63;;;18.41;73.88
6144;BME280;3103;49.492;8.474;2023-09-30T03:14:41;101447.28;;;18.48;74.01
6144;BME280;3103;49.492;8.474;2023-09-30T03:17:09;101447.25;;;18.37;74.70
6144;BME280;3103;49.492;8.474;2023-09-30T03:19:39;101447.53;;;18.41;74.66
6144;BME280;3103;49.492;8.474;2023-09-30T03:22:06;101433.81;;;18.16;75.32
6144;BME280;3103;49.492;8.474;2023-09-30T03:24:39;101433.06;;;18.25;75.53
6144;BME280;3103;49.492;8.474;2023-09-30T03:27:07;101426.50;;;18.21;75.43
6144;BME280;3103;49.492;8.474;2023-09-30T03:29:38;101429.28;;;18.31;75.26
6144;BME280;3103;49.492;8.474;2023-09-30T03:32:05;101429.22;;;18.16;75.50
6144;BME280;3103;49.492;8.474;2023-09-30T03:34:34;101442.25;;;18.14;75.40
6144;BME280;3103;49.492;8.474;2023-09-30T03:37:03;101435.53;;;18.37;74.50
6144;BME280;3103;49.492;8.474;2023-09-30T03:39:33;101445.34;;;18.38;74.31
6144;BME280;3103;49.492;8.474;2023-09-30T03:42:00;101449.13;;;18.32;74.13
6144;BME280;3103;49.492;8.474;2023-09-30T03:44:28;101455.63;;;18.26;74.55
6144;BME280;3103;49.492;8.474;2023-09-30T03:46:55;101450.19;;;18.26;74.29
6144;BME280;3103;49.492;8.474;2023-09-30T03:49:24;101465.91;;;18.14;74.97
6144;BME280;3103;49.492;8.474;2023-09-30T03:51:51;101447.13;;;18.07;75.17
6144;BME280;3103;49.492;8.474;2023-09-30T03:54:20;101454.22;;;18.13;75.26
6144;BME280;3103;49.492;8.474;2023-09-30T03:56:47;101460.78;;;18.17;74.44
6144;BME280;3103;49.492;8.474;2023-09-30T03:59:15;101456.09;;;18.02;75.30
6144;BME280;3103;49.492;8.474;2023-09-30T04:01:42;101457.78;;;18.19;74.52
6144;BME280;3103;49.492;8.474;2023-09-30T04:04:10;101463.53;;;18.27;73.90
6144;BME280;3103;49.492;8.474;2023-09-30T04:06:38;101463.06;;;18.46;73.32
6144;BME280;3103;49.492;8.474;2023-09-30T04:09:06;101466.28;;;18.37;73.17
6144;BME280;3103;49.492;8.474;2023-09-30T04:11:37;101469.00;;;18.37;72.78
6144;BME280;3103;49.492;8.474;2023-09-30T04:14:08;101460.78;;;18.22;73.20
6144;BME280;3103;49.492;8.474;2023-09-30T04:16:35;101462.97;;;18.20;73.11
6144;BME280;3103;49.492;8.474;2023-09-30T04:19:04;101450.72;;;18.23;73.41
6144;BME280;3103;49.492;8.474;2023-09-30T04:21:31;101460.84;;;18.32;73.11
6144;BME280;3103;49.492;8.474;2023-09-30T04:24:01;101460.84;;;18.32;72.69
6144;BME280;3103;49.492;8.474;2023-09-30T04:26:28;101463.53;;;18.27;72.48
6144;BME280;3103;49.492;8.474;2023-09-30T04:28:56;101458.63;;;18.24;72.63
6144;BME280;3103;49.492;8.474;2023-09-30T04:31:23;101462.44;;;18.23;72.71
6144;BME280;3103;49.492;8.474;2023-09-30T04:33:50;101469.16;;;18.05;73.32
6144;BME280;3103;49.492;8.474;2023-09-30T04:36:19;101473.38;;;17.49;76.05
6144;BME280;3103;49.492;8.474;2023-09-30T04:38:47;101479.09;;;17.52;76.03
6144;BME280;3103;49.492;8.474;2023-09-30T04:41:14;101474.53;;;17.26;76.84
6144;BME280;3103;49.492;8.474;2023-09-30T04:43:43;101480.84;;;17.32;77.02
6144;BME280;3103;49.492;8.474;2023-09-30T04:46:10;101484.81;;;17.56;75.59
6144;BME280;3103;49.492;8.474;2023-09-30T04:48:40;101490.44;;;17.44;76.01
6144;BME280;3103;49.492;8.474;2023-09-30T04:51:08;101497.88;;;17.59;75.51
6144;BME280;3103;49.492;8.474;2023-09-30T04:53:38;101506.56;;;17.88;74.41
6144;BME280;3103;49.492;8.474;2023-09-30T04:56:05;101496.28;;;17.95;74.36
6144;BME280;3103;49.492;8.474;2023-09-30T04:58:32;101495.47;;;18.00;73.91
6144;BME280;3103;49.492;8.474;2023-09-30T05:00:59;101487.31;;;17.95;73.47
6144;BME280;3103;49.492;8.474;2023-09-30T05:03:26;101493.94;;;17.72;74.22
6144;BME280;3103;49.492;8.474;2023-09-30T05:05:53;101490.47;;;17.82;74.12
6144;BME280;3103;49.492;8.474;2023-09-30T05:08:23;101479.88;;;17.80;74.25
6144;BME280;3103;49.492;8.474;2023-09-30T05:10:51;101497.09;;;17.96;73.30
6144;BME280;3103;49.492;8.474;2023-09-30T05:13:22;101493.78;;;17.89;73.54
6144;BME280;3103;49.492;8.474;2023-09-30T05:15:51;101496.97;;;17.75;73.92
6144;BME280;3103;49.492;8.474;2023-09-30T05:18:18;101501.09;;;17.83;73.80
6144;BME280;3103;49.492;8.474;2023-09-30T05:20:46;101505.78;;;17.93;73.34
6144;BME280;3103;49.492;8.474;2023-09-30T05:23:13;101511.75;;;17.95;73.47
6144;BME280;3103;49.492;8.474;2023-09-30T05:25:41;101516.13;;;17.96;73.49
6144;BME280;3103;49.492;8.474;2023-09-30T05:28:09;101503.34;;;17.96;73.42
6144;BME280;3103;49.492;8.474;2023-09-30T05:30:38;101506.09;;;18.01;73.34
6144;BME280;3103;49.492;8.474;2023-09-30T05:33:06;101515.09;;;18.02;73.08
6144;BME280;3103;49.492;8.474;2023-09-30T05:35:33;101530.81;;;18.00;72.41
6144;BME280;3103;49.492;8.474;2023-09-30T05:38:00;101523.69;;;17.89;72.75
6144;BME280;3103;49.492;8.474;2023-09-30T05:40:27;101521.47;;;17.86;72.77
6144;BME280;3103;49.492;8.474;2023-09-30T05:42:58;101533.25;;;17.96;72.62
6144;BME280;3103;49.492;8.474;2023-09-30T05:45:27;101535.72;;;17.98;72.38
6144;BME280;3103;49.492;8.474;2023-09-30T05:47:57;101536.53;;;17.98;72.42
6144;BME280;3103;49.492;8.474;2023-09-30T05:50:33;101528.59;;;17.92;72.25
6144;BME280;3103;49.492;8.474;2023-09-30T05:53:01;101528.88;;;17.90;72.16
6144;BME280;3103;49.492;8.474;2023-09-30T05:55:28;101526.91;;;17.86;72.41
6144;BME280;3103;49.492;8.474;2023-09-30T05:57:55;101527.16;;;17.79;73.04
6144;BME280;3103;49.492;8.474;2023-09-30T06:00:23;101540.59;;;17.96;72.15
6144;BME280;3103;49.492;8.474;2023-09-30T06:02:58;101525.91;;;17.97;71.38
6144;BME280;3103;49.492;8.474;2023-09-30T06:05:26;101528.09;;;17.95;70.98
6144;BME280;3103;49.492;8.474;2023-09-30T06:07:53;101532.41;;;17.91;71.14
6144;BME280;3103;49.492;8.474;2023-09-30T06:10:23;101528.06;;;17.90;71.11
6144;BME280;3103;49.492;8.474;2023-09-30T06:12:53;101531.91;;;17.99;70.54
6144;BME280;3103;49.492;8.474;2023-09-30T06:15:24;101536.31;;;18.05;70.06
6144;BME280;3103;49.492;8.474;2023-09-30T06:17:56;101528.25;;;17.83;70.95
6144;BME280;3103;49.492;8.474;2023-09-30T06:20:25;101530.25;;;17.98;70.19
6144;BME280;3103;49.492;8.474;2023-09-30T06:22:57;101536.53;;;17.98;70.16
6144;BME280;3103;49.492;8.474;2023-09-30T06:25:24;101529.69;;;17.91;70.04
6144;BME280;3103;49.492;8.474;2023-09-30T06:27:52;101526.47;;;17.99;70.38
6144;BME280;3103;49.492;8.474;2023-09-30T06:30:20;101529.25;;;18.04;70.20
6144;BME280;3103;49.492;8.474;2023-09-30T06:32:48;101523.34;;;18.17;69.62
6144;BME280;3103;49.492;8.474;2023-09-30T06:35:15;101521.69;;;18.16;69.76
6144;BME280;3103;49.492;8.474;2023-09-30T06:37:42;101532.34;;;18.28;69.21
6144;BME280;3103;49.492;8.474;2023-09-30T06:40:12;101526.63;;;18.24;69.54
6144;BME280;3103;49.492;8.474;2023-09-30T06:42:39;101540.25;;;18.29;68.68
6144;BME280;3103;49.492;8.474;2023-09-30T06:45:07;101548.16;;;18.31;68.33
6144;BME280;3103;49.492;8.474;2023-09-30T06:47:35;101544.56;;;18.20;68.53
6144;BME280;3103;49.492;8.474;2023-09-30T06:50:07;101547.91;;;18.32;68.07
6144;BME280;3103;49.492;8.474;2023-09-30T06:52:36;101561.25;;;18.39;67.88
6144;BME280;3103;49.492;8.474;2023-09-30T06:55:05;101573.00;;;18.45;67.17
6144;BME280;3103;49.492;8.474;2023-09-30T06:57:34;101580.06;;;18.46;66.51
6144;BME280;3103;49.492;8.474;2023-09-30T07:00:12;101566.47;;;18.51;66.26
6144;BME280;3103;49.492;8.474;2023-09-30T07:02:40;101563.91;;;18.29;66.92
6144;BME280;3103;49.492;8.474;2023-09-30T07:05:12;101559.91;;;18.42;67.08
6144;BME280;3103;49.492;8.474;2023-09-30T07:07:40;101556.13;;;18.48;67.01
6144;BME280;3103;49.492;8.474;2023-09-30T07:10:08;101564.59;;;18.56;66.12
6144;BME280;3103;49.492;8.474;2023-09-30T07:12:35;101582.63;;;18.67;65.78
6144;BME280;3103;49.492;8.474;2023-09-30T07:15:07;101579.69;;;18.79;64.88
6144;BME280;3103;49.492;8.474;2023-09-30T07:17:35;101579.72;;;18.84;65.07
6144;BME280;3103;49.492;8.474;2023-09-30T07:20:03;101597.44;;;18.97;64.90
6144;BME280;3103;49.492;8.474;2023-09-30T07:22:35;101588.75;;;19.00;65.85
6144;BME280;3103;49.492;8.474;2023-09-30T07:25:22;101592.81;;;18.87;66.94
6144;BME280;3103;49.492;8.474;2023-09-30T07:27:49;101605.00;;;18.75;67.11
6144;BME280;3103;49.492;8.474;2023-09-30T07:30:17;101606.88;;;18.69;67.39
6144;BME280;3103;49.492;8.474;2023-09-30T07:32:45;101594.19;;;18.90;66.53
6144;BME280;3103;49.492;8.474;2023-09-30T07:35:12;101586.31;;;19.09;66.18
6144;BME280;3103;49.492;8.474;2023-09-30T07:37:41;101585.84;;;19.32;64.82
6144;BME280;3103;49.492;8.474;2023-09-30T07:40:09;101575.22;;;19.36;64.26
6144;BME280;3103;49.492;8.474;2023-09-30T07:42:37;101587.19;;;19.40;64.12
6144;BME280;3103;49.492;8.474;2023-09-30T07:45:04;101594.50;;;19.09;65.58
6144;BME280;3103;49.492;8.474;2023-09-30T07:47:32;101587.22;;;19.45;63.72
6144;BME280;3103;49.492;8.474;2023-09-30T07:50:01;101593.75;;;19.49;62.13
6144;BME280;3103;49.492;8.474;2023-09-30T07:52:36;101597.56;;;19.53;61.85
6144;BME280;3103;49.492;8.474;2023-09-30T07:55:04;101602.00;;;19.64;61.39
6144;BME280;3103;49.492;8.474;2023-09-30T07:57:32;101604.72;;;19.59;61.33
6144;BME280;3103;49.492;8.474;2023-09-30T08:00:00;101600.03;;;19.49;61.59
6144;BME280;3103;49.492;8.474;2023-09-30T08:02:36;101589.72;;;19.67;61.65
6144;BME280;3103;49.492;8.474;2023-09-30T08:05:05;101600.38;;;19.73;61.16
6144;BME280;3103;49.492;8.474;2023-09-30T08:07:33;101582.59;;;20.11;60.30
6144;BME280;3103;49.492;8.474;2023-09-30T08:10:01;101580.09;;;20.56;58.97
6144;BME280;3103;49.492;8.474;2023-09-30T08:12:31;101599.97;;;20.61;58.49
6144;BME280;3103;49.492;8.474;2023-09-30T08:14:59;101607.94;;;20.48;58.94
6144;BME280;3103;49.492;8.474;2023-09-30T08:17:26;101612.59;;;20.42;59.16
6144;BME280;3103;49.492;8.474;2023-09-30T08:19:52;101602.75;;;20.31;59.60
6144;BME280;3103;49.492;8.474;2023-09-30T08:22:19;101601.66;;;19.50;61.49
6144;BME280;3103;49.492;8.474;2023-09-30T08:24:46;101600.34;;;19.68;61.30
6144;BME280;3103;49.492;8.474;2023-09-30T08:31:32;101589.91;;;20.36;58.69
6144;BME280;3103;49.492;8.474;2023-09-30T08:33:59;101599.22;;;20.20;59.05
6144;BME280;3103;49.492;8.474;2023-09-30T08:36:26;101609.34;;;20.09;59.24
6144;BME280;3103;49.492;8.474;2023-09-30T08:38:53;101608.78;;;20.12;59.23
6144;BME280;3103;49.492;8.474;2023-09-30T08:41:38;101625.44;;;20.41;58.77
6144;BME280;3103;49.492;8.474;2023-09-30T08:44:05;101616.13;;;20.32;58.33
6144;BME280;3103;49.492;8.474;2023-09-30T08:46:35;101613.13;;;20.49;58.70
6144;BME280;3103;49.492;8.474;2023-09-30T08:49:04;101608.47;;;20.34;58.21
6144;BME280;3103;49.492;8.474;2023-09-30T08:51:33;101602.75;;;20.36;58.78
6144;BME280;3103;49.492;8.474;2023-09-30T08:54:00;101619.56;;;20.84;57.28
6144;BME280;3103;49.492;8.474;2023-09-30T08:56:29;101617.19;;;21.26;55.80
6144;BME280;3103;49.492;8.474;2023-09-30T08:58:57;101622.81;;;21.84;53.84
6144;BME280;3103;49.492;8.474;2023-09-30T09:01:30;101614.44;;;21.66;54.22
6144;BME280;3103;49.492;8.474;2023-09-30T09:03:57;101614.44;;;21.71;54.35
6144;BME280;3103;49.492;8.474;2023-09-30T09:06:26;101614.03;;;20.94;56.93
6144;BME280;3103;49.492;8.474;2023-09-30T09:08:53;101615.75;;;20.80;57.35
6144;BME280;3103;49.492;8.474;2023-09-30T09:11:20;101614.72;;;20.40;58.40
6144;BME280;3103;49.492;8.474;2023-09-30T09:13:51;101600.91;;;21.01;56.75
6144;BME280;3103;49.492;8.474;2023-09-30T09:16:23;101610.00;;;21.41;55.66
6144;BME280;3103;49.492;8.474;2023-09-30T09:18:50;101621.31;;;20.34;57.59
6144;BME280;3103;49.492;8.474;2023-09-30T09:21:19;101617.53;;;19.84;60.06
6144;BME280;3103;49.492;8.474;2023-09-30T09:23:49;101610.44;;;19.98;60.75
6144;BME280;3103;49.492;8.474;2023-09-30T09:26:27;101611.69;;;20.67;58.42
6144;BME280;3103;49.492;8.474;2023-09-30T09:31:28;101615.56;;;21.20;55.76
6144;BME280;3103;49.492;8.474;2023-09-30T09:33:55;101613.13;;;21.14;55.85
6144;BME280;3103;49.492;8.474;2023-09-30T09:36:42;101605.69;;;21.29;56.42
6144;BME280;3103;49.492;8.474;2023-09-30T09:39:10;101608.19;;;20.51;57.40
6144;BME280;3103;49.492;8.474;2023-09-30T09:41:53;101600.31;;;21.09;56.54
6144;BME280;3103;49.492;8.474;2023-09-30T09:44:22;101610.53;;;21.43;54.62
6144;BME280;3103;49.492;8.474;2023-09-30T09:46:49;101600.50;;;21.28;55.53
6144;BME280;3103;49.492;8.474;2023-09-30T09:49:18;101599.34;;;20.80;55.51
6144;BME280;3103;49.492;8.474;2023-09-30T09:51:46;101605.44;;;20.61;56.04
6144;BME280;3103;49.492;8.474;2023-09-30T09:54:14;101605.34;;;20.87;55.63
6144;BME280;3103;49.492;8.474;2023-09-30T09:56:44;101600.25;;;20.55;56.03
6144;BME280;3103;49.492;8.474;2023-09-30T09:59:12;101606.41;;;20.91;55.61
6144;BME280;3103;49.492;8.474;2023-09-30T10:01:40;101607.72;;;21.03;54.79
6144;BME280;3103;49.492;8.474;2023-09-30T10:04:10;101606.78;;;21.23;54.39
6144;BME280;3103;49.492;8.474;2023-09-30T10:06:38;101607.28;;;21.36;53.75
6144;BME280;3103;49.492;8.474;2023-09-30T10:09:09;101602.03;;;21.83;52.31
6144;BME280;3103;49.492;8.474;2023-09-30T10:11:41;101592.59;;;21.94;51.76
6144;BME280;3103;49.492;8.474;2023-09-30T10:14:08;101597.66;;;21.82;51.46
6144;BME280;3103;49.492;8.474;2023-09-30T10:19:16;101586.28;;;21.70;52.91
6144;BME280;3103;49.492;8.474;2023-09-30T10:24:56;101580.63;;;20.53;55.37
6144;BME280;3103;49.492;8.474;2023-09-30T10:30:07;101571.22;;;20.84;55.80
6144;BME280;3103;49.492;8.474;2023-09-30T10:35:44;101567.09;;;21.41;53.97
6144;BME280;3103;49.492;8.474;2023-09-30T10:40:57;101572.63;;;21.65;52.84
6144;BME280;3103;49.492;8.474;2023-09-30T10:43:40;101558.78;;;21.51;53.20
6144;BME280;3103;49.492;8.474;2023-09-30T10:46:30;101562.81;;;21.20;54.15
6144;BME280;3103;49.492;8.474;2023-09-30T10:49:15;101565.31;;;21.11;53.99
6144;BME280;3103;49.492;8.474;2023-09-30T10:51:44;101560.78;;;20.16;57.18
6144;BME280;3103;49.492;8.474;2023-09-30T10:54:12;101549.16;;;20.70;56.78
6144;BME280;3103;49.492;8.474;2023-09-30T10:56:39;101549.19;;;21.10;54.42
6144;BME280;3103;49.492;8.474;2023-09-30T10:59:09;101557.91;;;21.17;53.52
6144;BME280;3103;49.492;8.474;2023-09-30T11:01:36;101550.72;;;20.82;54.41
6144;BME280;3103;49.492;8.474;2023-09-30T11:04:05;101556.25;;;21.26;53.88
6144;BME280;3103;49.492;8.474;2023-09-30T11:06:40;101548.09;;;21.16;53.60
6144;BME280;3103;49.492;8.474;2023-09-30T11:09:08;101553.50;;;21.21;53.79
6144;BME280;3103;49.492;8.474;2023-09-30T11:11:40;101546.56;;;20.99;53.79
6144;BME280;3103;49.492;8.474;2023-09-30T11:14:25;101546.31;;;21.40;53.13
6144;BME280;3103;49.492;8.474;2023-09-30T11:16:58;101549.94;;;21.30;52.66
6144;BME280;3103;49.492;8.474;2023-09-30T11:19:27;101554.63;;;21.59;52.26
6144;BME280;3103;49.492;8.474;2023-09-30T11:21:55;101547.78;;;21.61;51.81
6144;BME280;3103;49.492;8.474;2023-09-30T11:24:22;101542.00;;;21.68;51.56
6144;BME280;3103;49.492;8.474;2023-09-30T11:26:53;101554.13;;;21.52;51.54
6144;BME280;3103;49.492;8.474;2023-09-30T11:29:20;101559.47;;;21.67;51.21
6144;BME280;3103;49.492;8.474;2023-09-30T11:31:48;101571.91;;;21.54;51.02
6144;BME280;3103;49.492;8.474;2023-09-30T11:34:18;101566.00;;;21.37;50.50
6144;BME280;3103;49.492;8.474;2023-09-30T11:36:51;101570.75;;;21.60;51.03
6144;BME280;3103;49.492;8.474;2023-09-30T11:39:26;101563.88;;;21.68;50.56
6144;BME280;3103;49.492;8.474;2023-09-30T11:41:54;101565.81;;;21.18;51.28
6144;BME280;3103;49.492;8.474;2023-09-30T11:44:24;101564.53;;;21.55;50.51
6144;BME280;3103;49.492;8.474;2023-09-30T11:46:58;101560.84;;;21.70;49.95
6144;BME280;3103;49.492;8.474;2023-09-30T11:49:33;101558.34;;;21.73;49.65
6144;BME280;3103;49.492;8.474;2023-09-30T11:52:10;101555.75;;;21.53;49.90
6144;BME280;3103;49.492;8.474;2023-09-30T11:54:42;101554.41;;;21.55;50.26
6144;BME280;3103;49.492;8.474;2023-09-30T11:57:13;101547.94;;;21.75;51.17
6144;BME280;3103;49.492;8.474;2023-09-30T11:59:46;101554.72;;;21.78;50.60
6144;BME280;3103;49.492;8.474;2023-09-30T12:02:15;101543.69;;;21.20;50.23
6144;BME280;3103;49.492;8.474;2023-09-30T12:04:45;101544.53;;;21.15;50.62
6144;BME280;3103;49.492;8.474;2023-09-30T12:07:12;101532.47;;;21.21;51.12
6144;BME280;3103;49.492;8.474;2023-09-30T12:09:40;101540.38;;;21.23;50.42
6144;BME280;3103;49.492;8.474;2023-09-30T12:12:08;101549.75;;;21.51;49.60
6144;BME280;3103;49.492;8.474;2023-09-30T12:14:42;101545.78;;;21.67;49.48
6144;BME280;3103;49.492;8.474;2023-09-30T12:17:08;101545.69;;;21.48;50.01
6144;BME280;3103;49.492;8.474;2023-09-30T12:19:39;101551.59;;;21.60;49.27
6144;BME280;3103;49.492;8.474;2023-09-30T12:22:08;101541.50;;;21.61;49.11
6144;BME280;3103;49.492;8.474;2023-09-30T12:24:35;101537.56;;;21.72;49.10
6144;BME280;3103;49.492;8.474;2023-09-30T12:27:01;101538.56;;;21.81;48.79
6144;BME280;3103;49.492;8.474;2023-09-30T12:29:29;101533.09;;;21.81;48.48
6144;BME280;3103;49.492;8.474;2023-09-30T12:31:56;101519.81;;;21.36;49.72
6144;BME280;3103;49.492;8.474;2023-09-30T12:34:23;101522.53;;;21.36;50.11
6144;BME280;3103;49.492;8.474;2023-09-30T12:36:53;101519.69;;;21.51;49.63
6144;BME280;3103;49.492;8.474;2023-09-30T12:39:20;101510.34;;;21.57;48.62
6144;BME280;3103;49.492;8.474;2023-09-30T12:41:52;101512.00;;;21.53;49.31
6144;BME280;3103;49.492;8.474;2023-09-30T12:44:19;101499.44;;;21.52;49.72
6144;BME280;3103;49.492;8.474;2023-09-30T12:46:46;101500.81;;;21.54;49.74
6144;BME280;3103;49.492;8.474;2023-09-30T12:49:13;101501.06;;;21.53;49.87
6144;BME280;3103;49.492;8.474;2023-09-30T12:51:41;101506.53;;;21.53;49.35
6144;BME280;3103;49.492;8.474;2023-09-30T12:54:08;101502.38;;;21.60;49.44
6144;BME280;3103;49.492;8.474;2023-09-30T12:56:36;101502.63;;;21.64;49.62
6144;BME280;3103;49.492;8.474;2023-09-30T12:59:03;101497.81;;;21.17;49.05
6144;BME280;3103;49.492;8.474;2023-09-30T13:01:30;101498.72;;;21.02;49.78
6144;BME280;3103;49.492;8.474;2023-09-30T13:04:02;101496.09;;;20.87;50.52
6144;BME280;3103;49.492;8.474;2023-09-30T13:06:29;101499.78;;;21.06;50.17
6144;BME280;3103;49.492;8.474;2023-09-30T13:08:59;101495.94;;;21.12;49.59
6144;BME280;3103;49.492;8.474;2023-09-30T13:11:27;101508.50;;;21.47;49.46
6144;BME280;3103;49.492;8.474;2023-09-30T13:13:55;101512.44;;;21.65;48.94
6144;BME280;3103;49.492;8.474;2023-09-30T13:16:23;101516.47;;;21.44;48.60
6144;BME280;3103;49.492;8.474;2023-09-30T13:18:50;101508.47;;;21.52;50.01
6144;BME280;3103;49.492;8.474;2023-09-30T13:21:20;101503.81;;;21.53;49.65
6144;BME280;3103;49.492;8.474;2023-09-30T13:23:47;101496.91;;;21.60;49.42
6144;BME280;3103;49.492;8.474;2023-09-30T13:26:14;101498.75;;;21.70;48.73
6144;BME280;3103;49.492;8.474;2023-09-30T13:28:40;101497.53;;;21.81;48.66
6144;BME280;3103;49.492;8.474;2023-09-30T13:31:07;101495.06;;;21.80;47.70
6144;BME280;3103;49.492;8.474;2023-09-30T13:33:34;101497.25;;;21.83;47.58
6144;BME280;3103;49.492;8.474;2023-09-30T13:36:03;101490.22;;;22.01;47.42
6144;BME280;3103;49.492;8.474;2023-09-30T13:38:32;101487.72;;;22.04;48.03
6144;BME280;3103;49.492;8.474;2023-09-30T13:40:59;101485.00;;;22.28;47.10